Time;durP1;ratioP1;P1;durP2;ratioP2;P2;SDS_P1;SDS_P2;PMS_P1;PMS_P2;Temp;Humidity;BMP_temperature;BMP_pressure;BME280_temperature;BME280_humidity;BME280_pressure;Samples;Min_cycle;Max_cycle;Signal;HPM_P1;HPM_P2
2021/04/04 00:00:34;;;;;;;;;;;19.60;38.70;;;;;;462922;257;1044;-45
2021/04/04 00:02:35;;;;;;;;;;;19.70;38.70;;;;;;463035;257;1105;-45
2021/04/04 00:04:36;;;;;;;;;;;19.70;38.60;;;;;;462917;257;2252;-45
2021/04/04 00:06:37;;;;;;;;;;;19.70;38.40;;;;;;462891;257;1089;-45
2021/04/04 00:08:39;;;;;;;;;;;19.80;38.40;;;;;;463035;257;1296;-45
2021/04/04 00:10:40;;;;;;;;;;;19.80;38.30;;;;;;463203;257;1079;-45
2021/04/04 00:12:41;;;;;;;;;;;19.90;38.20;;;;;;463063;257;1389;-45
2021/04/04 00:14:43;;;;;;;;;;;19.90;38.10;;;;;;463033;257;1056;-45
2021/04/04 00:16:44;;;;;;;;;;;19.90;38.10;;;;;;463052;257;1037;-45
2021/04/04 00:18:45;;;;;;;;;;;20.00;38.10;;;;;;463096;257;1145;-44
2021/04/04 00:20:46;;;;;;;;;;;20.00;37.90;;;;;;462938;257;1073;-45
2021/04/04 00:22:48;;;;;;;;;;;20.00;37.90;;;;;;462985;257;1104;-45
2021/04/04 00:24:49;;;;;;;;;;;20.10;37.90;;;;;;462974;257;2210;-45
2021/04/04 00:26:50;;;;;;;;;;;20.10;38.00;;;;;;463051;257;1089;-45
2021/04/04 00:28:52;;;;;;;;;;;20.10;37.90;;;;;;463209;257;1095;-45
2021/04/04 00:30:53;;;;;;;;;;;20.10;37.80;;;;;;462895;257;1051;-45
2021/04/04 00:32:54;;;;;;;;;;;20.10;37.80;;;;;;463074;257;1203;-45
2021/04/04 00:34:55;;;;;;;;;;;20.10;37.80;;;;;;462982;257;1044;-45
2021/04/04 00:36:57;;;;;;;;;;;20.20;37.70;;;;;;463042;257;1043;-45
2021/04/04 00:38:58;;;;;;;;;;;20.20;37.70;;;;;;462930;257;1223;-45
2021/04/04 00:41:00;;;;;;;;;;;20.20;37.70;;;;;;462927;257;1086;-45
2021/04/04 00:43:01;;;;;;;;;;;20.20;37.70;;;;;;463338;257;1080;-45
2021/04/04 00:45:02;;;;;;;;;;;20.20;37.60;;;;;;462900;257;2239;-45
2021/04/04 00:47:03;;;;;;;;;;;20.20;37.60;;;;;;463127;257;1047;-45
2021/04/04 00:49:05;;;;;;;;;;;20.30;37.60;;;;;;462949;257;1079;-45
2021/04/04 00:51:06;;;;;;;;;;;20.30;37.60;;;;;;462983;257;1152;-45
2021/04/04 00:53:07;;;;;;;;;;;20.30;37.60;;;;;;462954;257;1069;-45
2021/04/04 00:55:09;;;;;;;;;;;20.30;37.50;;;;;;463003;257;1218;-45
2021/04/04 00:57:10;;;;;;;;;;;20.40;37.50;;;;;;462916;257;1082;-45
2021/04/04 00:59:11;;;;;;;;;;;20.40;37.50;;;;;;462963;257;1024;-45
2021/04/04 01:01:12;;;;;;;;;;;20.40;37.50;;;;;;462947;257;1037;-45
2021/04/04 01:03:14;;;;;;;;;;;20.40;37.50;;;;;;462936;257;1087;-45
2021/04/04 01:05:16;;;;;;;;;;;20.40;37.50;;;;;;463122;257;2207;-45
2021/04/04 01:07:17;;;;;;;;;;;20.40;37.50;;;;;;462951;257;1443;-45
2021/04/04 01:09:20;;;;;;;;;;;20.40;37.50;;;;;;463026;257;1209;-45
2021/04/04 01:11:20;;;;;;;;;;;20.40;37.40;;;;;;462957;257;1900;-45
2021/04/04 01:13:21;;;;;;;;;;;20.40;37.40;;;;;;462922;257;1226;-45
2021/04/04 01:15:22;;;;;;;;;;;20.40;37.40;;;;;;462977;257;1074;-45
2021/04/04 01:17:23;;;;;;;;;;;20.40;37.40;;;;;;462983;257;1047;-45
2021/04/04 01:19:25;;;;;;;;;;;20.50;37.40;;;;;;463098;257;1058;-45
2021/04/04 01:21:26;;;;;;;;;;;20.50;37.30;;;;;;462937;257;1038;-45
2021/04/04 01:23:27;;;;;;;;;;;20.50;37.30;;;;;;463161;257;1095;-45
2021/04/04 01:25:29;;;;;;;;;;;20.50;37.30;;;;;;462945;257;2187;-45
2021/04/04 01:27:30;;;;;;;;;;;20.60;37.20;;;;;;462992;257;1029;-45
2021/04/04 01:29:31;;;;;;;;;;;20.60;37.20;;;;;;462974;257;1102;-45
2021/04/04 01:31:32;;;;;;;;;;;20.60;37.20;;;;;;462936;257;1174;-45
2021/04/04 01:33:34;;;;;;;;;;;20.60;37.20;;;;;;462938;257;1063;-45
2021/04/04 01:35:35;;;;;;;;;;;20.60;37.20;;;;;;463005;257;1020;-45
2021/04/04 01:37:36;;;;;;;;;;;20.60;37.30;;;;;;462976;257;1067;-45
2021/04/04 01:39:38;;;;;;;;;;;20.60;37.20;;;;;;462996;257;1208;-45
2021/04/04 01:41:39;;;;;;;;;;;20.60;37.30;;;;;;463035;257;1072;-45
2021/04/04 01:43:40;;;;;;;;;;;20.60;37.20;;;;;;463300;257;2182;-45
2021/04/04 01:45:42;;;;;;;;;;;20.60;37.20;;;;;;462946;257;1062;-45
2021/04/04 01:47:43;;;;;;;;;;;20.60;37.20;;;;;;462881;257;1062;-45
2021/04/04 01:49:44;;;;;;;;;;;20.60;37.20;;;;;;463015;257;1091;-45
2021/04/04 01:51:46;;;;;;;;;;;20.60;37.20;;;;;;462851;257;1115;-45
2021/04/04 01:53:47;;;;;;;;;;;20.60;37.20;;;;;;462934;257;1055;-45
2021/04/04 01:55:48;;;;;;;;;;;20.60;37.20;;;;;;462965;257;1200;-45
2021/04/04 01:57:49;;;;;;;;;;;20.60;37.10;;;;;;462913;257;1085;-45
2021/04/04 01:59:51;;;;;;;;;;;20.70;37.10;;;;;;463159;257;1080;-45
2021/04/04 02:01:52;;;;;;;;;;;20.70;37.10;;;;;;462917;257;1069;-45
2021/04/04 02:03:53;;;;;;;;;;;20.70;37.10;;;;;;462912;257;2203;-45
2021/04/04 02:05:55;;;;;;;;;;;20.70;37.20;;;;;;462946;257;1120;-45
2021/04/04 02:07:56;;;;;;;;;;;20.70;37.10;;;;;;463235;257;1160;-45
2021/04/04 02:09:57;;;;;;;;;;;20.70;37.10;;;;;;463013;257;1198;-45
2021/04/04 02:11:58;;;;;;;;;;;20.70;37.10;;;;;;462837;254;1217;-45
2021/04/04 02:14:00;;;;;;;;;;;20.80;37.00;;;;;;462919;257;1059;-45
2021/04/04 02:16:01;;;;;;;;;;;20.80;37.10;;;;;;463007;257;1058;-45
2021/04/04 02:18:02;;;;;;;;;;;20.70;37.00;;;;;;462875;257;1103;-45
2021/04/04 02:20:04;;;;;;;;;;;20.70;37.10;;;;;;462931;257;1097;-45
2021/04/04 02:22:05;;;;;;;;;;;20.80;37.10;;;;;;462903;254;1159;-45
2021/04/04 02:24:06;;;;;;;;;;;20.80;37.00;;;;;;462877;257;2202;-45
2021/04/04 02:26:07;;;;;;;;;;;20.80;36.90;;;;;;462953;257;1203;-45
2021/04/04 02:28:09;;;;;;;;;;;20.80;36.90;;;;;;462929;257;1060;-45
2021/04/04 02:30:10;;;;;;;;;;;20.80;37.10;;;;;;462930;257;1060;-45
2021/04/04 02:32:12;;;;;;;;;;;20.80;37.10;;;;;;462938;257;1192;-45
2021/04/04 02:34:13;;;;;;;;;;;20.80;37.00;;;;;;462844;257;1957;-45
2021/04/04 02:36:14;;;;;;;;;;;20.80;37.00;;;;;;462932;257;1052;-45
2021/04/04 02:38:16;;;;;;;;;;;20.80;37.00;;;;;;462994;257;1038;-45
2021/04/04 02:40:17;;;;;;;;;;;20.80;37.00;;;;;;462956;257;1269;-45
2021/04/04 02:42:18;;;;;;;;;;;20.80;37.00;;;;;;462954;257;1088;-45
2021/04/04 02:44:19;;;;;;;;;;;20.80;37.00;;;;;;462885;257;2206;-45
2021/04/04 02:46:21;;;;;;;;;;;20.80;37.00;;;;;;462863;257;1109;-45
2021/04/04 02:48:22;;;;;;;;;;;20.90;37.00;;;;;;462966;257;1244;-45
2021/04/04 02:50:23;;;;;;;;;;;20.90;37.00;;;;;;463077;257;1183;-45
2021/04/04 02:52:25;;;;;;;;;;;20.90;36.90;;;;;;462966;257;1181;-45
2021/04/04 02:54:26;;;;;;;;;;;20.90;37.00;;;;;;462938;257;1099;-45
2021/04/04 02:56:27;;;;;;;;;;;20.90;37.00;;;;;;462961;257;1150;-45
2021/04/04 02:58:29;;;;;;;;;;;20.80;37.00;;;;;;462968;257;1108;-45
2021/04/04 03:00:30;;;;;;;;;;;20.90;37.00;;;;;;462951;257;1245;-45
2021/04/04 03:02:31;;;;;;;;;;;20.90;37.00;;;;;;462900;257;1181;-45
2021/04/04 03:04:32;;;;;;;;;;;20.90;36.90;;;;;;463180;257;2212;-45
2021/04/04 03:06:34;;;;;;;;;;;20.90;36.90;;;;;;463071;257;1155;-45
2021/04/04 03:08:35;;;;;;;;;;;20.90;37.00;;;;;;462906;257;1095;-45
2021/04/04 03:10:36;;;;;;;;;;;20.90;36.90;;;;;;462938;257;1167;-45
2021/04/04 03:12:38;;;;;;;;;;;20.90;36.90;;;;;;462975;257;1298;-45
2021/04/04 03:14:39;;;;;;;;;;;20.90;36.90;;;;;;463015;257;2311;-45
2021/04/04 03:16:40;;;;;;;;;;;20.90;36.90;;;;;;463088;257;1214;-45
2021/04/04 03:18:41;;;;;;;;;;;20.90;36.90;;;;;;463052;257;1052;-45
2021/04/04 03:20:43;;;;;;;;;;;20.90;36.90;;;;;;462972;257;1002;-45
2021/04/04 03:22:44;;;;;;;;;;;20.90;37.00;;;;;;462915;257;1108;-45
2021/04/04 03:24:45;;;;;;;;;;;20.90;36.90;;;;;;462959;257;2147;-45
2021/04/04 03:26:47;;;;;;;;;;;21.00;36.90;;;;;;462943;257;1218;-45
2021/04/04 03:28:48;;;;;;;;;;;20.90;36.90;;;;;;463105;257;1076;-45
2021/04/04 03:30:49;;;;;;;;;;;20.90;36.90;;;;;;462948;257;1148;-45
2021/04/04 03:32:50;;;;;;;;;;;20.90;36.90;;;;;;462988;257;1077;-45
2021/04/04 03:34:52;;;;;;;;;;;20.90;36.90;;;;;;462942;257;1068;-45
2021/04/04 03:36:53;;;;;;;;;;;20.90;36.90;;;;;;462897;257;1122;-45
2021/04/04 03:38:54;;;;;;;;;;;21.00;36.90;;;;;;462856;257;1019;-45
2021/04/04 03:40:56;;;;;;;;;;;21.00;36.80;;;;;;462934;257;1335;-45
2021/04/04 03:42:57;;;;;;;;;;;21.00;36.80;;;;;;462877;257;1078;-45
2021/04/04 03:44:58;;;;;;;;;;;21.00;36.70;;;;;;462853;257;2203;-45
2021/04/04 03:47:00;;;;;;;;;;;21.00;36.70;;;;;;462906;257;1113;-45
2021/04/04 03:49:01;;;;;;;;;;;21.10;36.70;;;;;;462896;257;1080;-45
2021/04/04 03:51:03;;;;;;;;;;;21.00;36.70;;;;;;462846;257;1109;-45
2021/04/04 03:53:04;;;;;;;;;;;21.10;36.70;;;;;;462848;257;1026;-45
2021/04/04 03:55:05;;;;;;;;;;;21.10;36.70;;;;;;462943;257;1028;-45
2021/04/04 03:57:06;;;;;;;;;;;21.10;36.70;;;;;;462915;257;1157;-45
2021/04/04 03:59:08;;;;;;;;;;;21.10;36.60;;;;;;463023;257;1083;-45
2021/04/04 04:01:09;;;;;;;;;;;21.10;36.70;;;;;;462881;257;1189;-45
2021/04/04 04:03:10;;;;;;;;;;;21.10;36.60;;;;;;462833;257;1062;-45
2021/04/04 04:05:11;;;;;;;;;;;21.10;36.60;;;;;;462918;257;2203;-45
2021/04/04 04:07:13;;;;;;;;;;;21.10;36.70;;;;;;462871;257;1155;-45
2021/04/04 04:09:14;;;;;;;;;;;21.10;36.70;;;;;;462990;257;1193;-45
2021/04/04 04:11:15;;;;;;;;;;;21.10;36.70;;;;;;462901;254;1392;-45
2021/04/04 04:13:17;;;;;;;;;;;21.10;36.70;;;;;;462885;257;1168;-45
2021/04/04 04:15:18;;;;;;;;;;;21.10;36.70;;;;;;463007;257;1051;-45
2021/04/04 04:17:19;;;;;;;;;;;21.10;36.70;;;;;;462957;257;1107;-45
2021/04/04 04:19:20;;;;;;;;;;;21.10;36.70;;;;;;462954;257;1080;-45
2021/04/04 04:21:22;;;;;;;;;;;21.10;36.60;;;;;;462880;257;1112;-45
2021/04/04 04:23:23;;;;;;;;;;;21.10;36.60;;;;;;462957;257;1133;-45
2021/04/04 04:25:24;;;;;;;;;;;21.10;36.60;;;;;;462951;257;2191;-45
2021/04/04 04:27:26;;;;;;;;;;;21.10;36.70;;;;;;463005;257;1200;-45
2021/04/04 04:29:27;;;;;;;;;;;21.10;36.70;;;;;;462942;257;974;-45
2021/04/04 04:31:28;;;;;;;;;;;21.10;36.70;;;;;;462924;257;1033;-45
2021/04/04 04:33:30;;;;;;;;;;;21.10;36.70;;;;;;462840;257;1124;-45
2021/04/04 04:35:31;;;;;;;;;;;21.20;36.70;;;;;;462907;257;1084;-45
2021/04/04 04:37:32;;;;;;;;;;;21.10;36.70;;;;;;462979;257;1058;-45
2021/04/04 04:39:34;;;;;;;;;;;21.10;36.70;;;;;;463042;257;1032;-45
2021/04/04 04:41:35;;;;;;;;;;;21.10;36.70;;;;;;462911;257;1285;-45
2021/04/04 04:43:36;;;;;;;;;;;21.20;36.70;;;;;;462981;257;1087;-45
2021/04/04 04:45:37;;;;;;;;;;;21.10;36.60;;;;;;462984;257;2151;-45
2021/04/04 04:47:39;;;;;;;;;;;21.20;36.70;;;;;;462966;257;1069;-45
2021/04/04 04:49:40;;;;;;;;;;;21.10;36.70;;;;;;463278;257;1101;-45
2021/04/04 04:51:41;;;;;;;;;;;21.10;36.70;;;;;;463031;257;1202;-45
2021/04/04 04:53:43;;;;;;;;;;;21.10;36.70;;;;;;463139;257;1065;-45
2021/04/04 04:55:44;;;;;;;;;;;21.20;36.70;;;;;;462957;257;986;-45
2021/04/04 04:57:45;;;;;;;;;;;21.10;36.70;;;;;;462978;257;1162;-45
2021/04/04 04:59:46;;;;;;;;;;;21.10;36.70;;;;;;462962;257;1177;-45
2021/04/04 05:01:48;;;;;;;;;;;21.20;36.70;;;;;;462903;257;1114;-45
2021/04/04 05:03:49;;;;;;;;;;;21.20;36.70;;;;;;462855;257;1102;-44
2021/04/04 05:05:50;;;;;;;;;;;21.20;36.60;;;;;;463147;257;2202;-45
2021/04/04 05:07:52;;;;;;;;;;;21.20;36.70;;;;;;462989;257;1061;-45
2021/04/04 05:09:53;;;;;;;;;;;21.20;36.70;;;;;;462918;257;1069;-45
2021/04/04 05:11:54;;;;;;;;;;;21.10;36.70;;;;;;462907;257;1181;-45
2021/04/04 05:13:55;;;;;;;;;;;21.20;36.70;;;;;;462965;257;1087;-45
2021/04/04 05:15:57;;;;;;;;;;;21.20;36.70;;;;;;463179;257;1059;-45
2021/04/04 05:17:58;;;;;;;;;;;21.20;36.70;;;;;;462929;257;1111;-45
2021/04/04 05:19:59;;;;;;;;;;;21.20;36.70;;;;;;462902;257;1074;-45
2021/04/04 05:22:01;;;;;;;;;;;21.20;36.60;;;;;;462959;257;1050;-45
2021/04/04 05:24:02;;;;;;;;;;;21.20;36.60;;;;;;463011;257;1120;-45
2021/04/04 05:26:03;;;;;;;;;;;21.20;36.60;;;;;;463038;257;2151;-45
2021/04/04 05:28:04;;;;;;;;;;;21.20;36.60;;;;;;462884;257;1201;-45
2021/04/04 05:30:06;;;;;;;;;;;21.20;36.70;;;;;;463153;257;1078;-45
2021/04/04 05:32:07;;;;;;;;;;;21.20;36.70;;;;;;462958;257;1134;-45
2021/04/04 05:34:08;;;;;;;;;;;21.20;36.60;;;;;;462924;257;1060;-45
2021/04/04 05:36:10;;;;;;;;;;;21.20;36.60;;;;;;463159;257;1073;-45
2021/04/04 05:38:11;;;;;;;;;;;21.20;36.60;;;;;;463049;257;1237;-45
2021/04/04 05:40:12;;;;;;;;;;;21.20;36.60;;;;;;462990;257;1072;-45
2021/04/04 05:42:14;;;;;;;;;;;21.20;36.70;;;;;;462997;257;1340;-45
2021/04/04 05:44:15;;;;;;;;;;;21.20;36.60;;;;;;462883;257;1367;-45
2021/04/04 05:46:16;;;;;;;;;;;21.20;36.70;;;;;;462847;254;2156;-45
2021/04/04 05:48:17;;;;;;;;;;;21.20;36.60;;;;;;462931;257;1108;-45
2021/04/04 05:50:19;;;;;;;;;;;21.20;36.60;;;;;;462859;257;1128;-45
2021/04/04 05:52:20;;;;;;;;;;;21.20;36.60;;;;;;462953;257;1062;-45
2021/04/04 05:54:21;;;;;;;;;;;21.20;36.70;;;;;;463222;257;1097;-45
2021/04/04 05:56:23;;;;;;;;;;;21.20;36.60;;;;;;463033;257;1108;-45
2021/04/04 05:58:24;;;;;;;;;;;21.20;36.60;;;;;;462970;257;1144;-45
2021/04/04 06:00:25;;;;;;;;;;;21.20;36.70;;;;;;462980;257;1177;-45
2021/04/04 06:02:27;;;;;;;;;;;21.20;36.60;;;;;;462850;257;1204;-45
2021/04/04 06:04:28;;;;;;;;;;;21.20;36.70;;;;;;462884;257;1240;-44
2021/04/04 06:06:29;;;;;;;;;;;21.20;36.60;;;;;;463016;257;2203;-44
2021/04/04 06:08:30;;;;;;;;;;;21.20;36.60;;;;;;462947;257;1122;-45
2021/04/04 06:10:32;;;;;;;;;;;21.20;36.60;;;;;;463122;257;1055;-45
2021/04/04 06:12:33;;;;;;;;;;;21.20;36.60;;;;;;462929;257;1290;-45
2021/04/04 06:14:34;;;;;;;;;;;21.20;36.60;;;;;;462917;257;1112;-45
2021/04/04 06:16:35;;;;;;;;;;;21.20;36.60;;;;;;463004;257;1136;-45
2021/04/04 06:18:37;;;;;;;;;;;21.30;36.60;;;;;;462907;257;1079;-45
2021/04/04 06:20:41;;;;;;;;;;;21.20;36.60;;;;;;462933;257;1045;-45
2021/04/04 06:22:39;;;;;;;;;;;21.30;36.50;;;;;;462791;257;2252;-45
2021/04/04 06:24:41;;;;;;;;;;;21.30;36.40;;;;;;462887;257;1052;-45
2021/04/04 06:26:42;;;;;;;;;;;20.90;37.10;;;;;;462971;257;2195;-45
2021/04/04 06:28:43;;;;;;;;;;;20.30;38.10;;;;;;462939;257;1216;-44
2021/04/04 06:30:49;;;;;;;;;;;19.90;39.10;;;;;;462923;257;1022;-45
2021/04/04 06:32:49;;;;;;;;;;;19.60;39.80;;;;;;462835;257;2109;-44
2021/04/04 06:34:50;;;;;;;;;;;19.30;40.10;;;;;;462972;257;1103;-44
2021/04/04 06:36:51;;;;;;;;;;;19.20;40.50;;;;;;462952;257;1098;-44
2021/04/04 06:38:53;;;;;;;;;;;19.10;40.80;;;;;;462901;257;1160;-45
2021/04/04 06:40:54;;;;;;;;;;;19.00;41.00;;;;;;463355;257;1103;-45
2021/04/04 06:42:55;;;;;;;;;;;18.90;41.20;;;;;;463039;257;1154;-44
2021/04/04 06:44:56;;;;;;;;;;;18.80;41.30;;;;;;462973;257;1152;-44
2021/04/04 06:46:58;;;;;;;;;;;18.80;41.40;;;;;;462953;257;2205;-44
2021/04/04 06:48:59;;;;;;;;;;;18.70;41.50;;;;;;462896;257;1449;-44
2021/04/04 06:51:00;;;;;;;;;;;18.70;41.50;;;;;;462980;257;1038;-44
2021/04/04 06:53:01;;;;;;;;;;;18.70;41.60;;;;;;462943;257;1306;-44
2021/04/04 06:55:03;;;;;;;;;;;18.70;41.60;;;;;;463126;257;1194;-44
2021/04/04 06:57:04;;;;;;;;;;;18.70;41.50;;;;;;463102;257;1168;-44
2021/04/04 06:59:05;;;;;;;;;;;18.70;41.50;;;;;;462918;257;1230;-44
2021/04/04 07:01:07;;;;;;;;;;;18.70;41.50;;;;;;462918;257;1138;-44
2021/04/04 07:03:08;;;;;;;;;;;18.70;41.40;;;;;;462880;257;1052;-44
2021/04/04 07:05:09;;;;;;;;;;;18.70;41.40;;;;;;463038;257;981;-44
2021/04/04 07:07:11;;;;;;;;;;;18.80;41.30;;;;;;462872;257;2198;-44
2021/04/04 07:09:12;;;;;;;;;;;18.80;41.30;;;;;;462900;257;1075;-44
2021/04/04 07:11:13;;;;;;;;;;;18.70;41.30;;;;;;462940;257;1058;-45
2021/04/04 07:13:15;;;;;;;;;;;18.70;41.30;;;;;;462992;257;1445;-44
2021/04/04 07:15:16;;;;;;;;;;;18.60;41.50;;;;;;462776;257;1081;-44
2021/04/04 07:17:17;;;;;;;;;;;18.60;41.70;;;;;;462846;257;1196;-44
2021/04/04 07:19:18;;;;;;;;;;;18.50;41.70;;;;;;462923;257;1081;-44
2021/04/04 07:21:20;;;;;;;;;;;18.50;41.70;;;;;;462844;257;1709;-44
2021/04/04 07:23:21;;;;;;;;;;;18.50;41.90;;;;;;462933;257;1214;-44
2021/04/04 07:25:22;;;;;;;;;;;18.40;41.90;;;;;;462842;257;1072;-44
2021/04/04 07:27:24;;;;;;;;;;;18.40;42.00;;;;;;462809;257;2238;-45
2021/04/04 07:29:25;;;;;;;;;;;18.40;42.00;;;;;;462787;257;1297;-44
2021/04/04 07:31:27;;;;;;;;;;;18.40;41.90;;;;;;462805;257;1388;-44
2021/04/04 07:33:28;;;;;;;;;;;18.40;41.90;;;;;;462854;257;1148;-44
2021/04/04 07:35:29;;;;;;;;;;;18.40;41.90;;;;;;462871;257;1112;-44
2021/04/04 07:37:30;;;;;;;;;;;18.40;42.00;;;;;;462845;257;1101;-45
2021/04/04 07:39:31;;;;;;;;;;;18.40;41.90;;;;;;462873;257;1130;-44
2021/04/04 07:41:33;;;;;;;;;;;18.30;41.90;;;;;;462868;257;1140;-44
2021/04/04 07:43:34;;;;;;;;;;;18.30;41.90;;;;;;463048;257;1144;-44
2021/04/04 07:45:36;;;;;;;;;;;18.30;42.00;;;;;;462844;257;1121;-44
2021/04/04 07:47:36;;;;;;;;;;;18.30;42.00;;;;;;462820;257;2144;-44
2021/04/04 07:49:38;;;;;;;;;;;18.30;41.90;;;;;;462785;257;1542;-44
2021/04/04 07:51:39;;;;;;;;;;;18.30;41.90;;;;;;462810;257;1264;-44
2021/04/04 07:53:40;;;;;;;;;;;18.30;41.80;;;;;;462912;257;1075;-44
2021/04/04 07:55:42;;;;;;;;;;;18.30;41.90;;;;;;462892;257;1073;-45
2021/04/04 07:57:43;;;;;;;;;;;18.30;42.00;;;;;;462904;257;1056;-44
2021/04/04 07:59:44;;;;;;;;;;;18.30;42.00;;;;;;462784;257;1208;-45
2021/04/04 08:01:45;;;;;;;;;;;18.30;42.10;;;;;;462790;257;1325;-44
2021/04/04 08:03:47;;;;;;;;;;;18.30;42.00;;;;;;462728;257;1093;-44
2021/04/04 08:05:48;;;;;;;;;;;18.20;42.10;;;;;;462865;257;2159;-44
2021/04/04 08:07:49;;;;;;;;;;;18.20;42.10;;;;;;462865;256;1086;-44
2021/04/04 08:09:50;;;;;;;;;;;18.20;42.00;;;;;;462847;257;1083;-44
2021/04/04 08:11:52;;;;;;;;;;;18.20;42.00;;;;;;462882;257;1129;-44
2021/04/04 08:13:53;;;;;;;;;;;18.20;42.00;;;;;;462772;257;1170;-44
2021/04/04 08:15:54;;;;;;;;;;;18.20;42.00;;;;;;462897;257;1223;-44
2021/04/04 08:17:56;;;;;;;;;;;18.20;42.10;;;;;;462804;257;1131;-44
2021/04/04 08:19:57;;;;;;;;;;;18.20;42.10;;;;;;463037;257;1378;-45
2021/04/04 08:21:58;;;;;;;;;;;18.20;42.00;;;;;;462923;257;1181;-44
2021/04/04 08:23:59;;;;;;;;;;;18.20;42.10;;;;;;462988;257;1137;-44
2021/04/04 08:26:01;;;;;;;;;;;18.10;42.10;;;;;;463026;257;2148;-44
2021/04/04 08:28:02;;;;;;;;;;;18.10;42.10;;;;;;462889;257;1115;-44
2021/04/04 08:30:03;;;;;;;;;;;18.10;42.10;;;;;;462865;257;1095;-44
2021/04/04 08:32:05;;;;;;;;;;;18.10;42.10;;;;;;462912;257;1068;-44
2021/04/04 08:34:06;;;;;;;;;;;18.10;42.10;;;;;;463137;257;1062;-44
2021/04/04 08:36:07;;;;;;;;;;;18.10;42.20;;;;;;462901;257;1095;-44
2021/04/04 08:38:09;;;;;;;;;;;18.10;42.10;;;;;;462919;257;1075;-44
2021/04/04 08:40:11;;;;;;;;;;;18.10;42.10;;;;;;463070;257;1064;-44
2021/04/04 08:42:12;;;;;;;;;;;18.10;42.10;;;;;;462841;257;1206;-44
2021/04/04 08:44:13;;;;;;;;;;;18.10;42.10;;;;;;463062;257;1222;-44
2021/04/04 08:46:14;;;;;;;;;;;18.10;42.10;;;;;;463060;257;2156;-44
2021/04/04 08:48:15;;;;;;;;;;;18.00;42.10;;;;;;462942;257;1099;-44
2021/04/04 08:50:17;;;;;;;;;;;18.10;42.00;;;;;;463012;257;1075;-44
2021/04/04 08:52:18;;;;;;;;;;;18.10;42.10;;;;;;462929;257;1064;-44
2021/04/04 08:54:19;;;;;;;;;;;18.10;42.00;;;;;;463073;257;1060;-45
2021/04/04 08:56:21;;;;;;;;;;;18.00;42.00;;;;;;462901;257;1103;-44
2021/04/04 08:58:22;;;;;;;;;;;18.00;42.10;;;;;;462921;257;1096;-44
2021/04/04 09:00:23;;;;;;;;;;;18.00;42.10;;;;;;462964;257;1221;-44
2021/04/04 09:02:24;;;;;;;;;;;18.00;42.10;;;;;;463002;257;1091;-44
2021/04/04 09:04:26;;;;;;;;;;;18.00;42.20;;;;;;463336;257;1091;-45
2021/04/04 09:06:27;;;;;;;;;;;18.00;42.20;;;;;;462906;257;2159;-44
2021/04/04 09:08:28;;;;;;;;;;;18.00;42.20;;;;;;463149;257;1197;-44
2021/04/04 09:10:30;;;;;;;;;;;18.00;42.10;;;;;;463034;257;1015;-44
2021/04/04 09:12:31;;;;;;;;;;;18.00;42.10;;;;;;462931;257;1296;-44
2021/04/04 09:14:32;;;;;;;;;;;18.00;42.10;;;;;;463170;257;1113;-44
2021/04/04 09:16:33;;;;;;;;;;;18.00;42.20;;;;;;463073;257;1060;-44
2021/04/04 09:18:35;;;;;;;;;;;18.00;42.10;;;;;;463084;257;1389;-44
2021/04/04 09:20:36;;;;;;;;;;;18.10;42.00;;;;;;463107;257;1051;-44
2021/04/04 09:22:37;;;;;;;;;;;18.30;41.30;;;;;;462901;257;1059;-44
2021/04/04 09:24:39;;;;;;;;;;;18.70;40.70;;;;;;463130;257;1100;-45
2021/04/04 09:26:40;;;;;;;;;;;18.90;40.00;;;;;;462855;257;2151;-44
2021/04/04 09:28:41;;;;;;;;;;;19.10;39.60;;;;;;462958;257;1250;-44
2021/04/04 09:30:43;;;;;;;;;;;19.30;39.20;;;;;;463029;257;1181;-44
2021/04/04 09:32:44;;;;;;;;;;;19.40;39.00;;;;;;463256;257;1122;-45
2021/04/04 09:34:45;;;;;;;;;;;19.50;38.90;;;;;;463027;257;1071;-44
2021/04/04 09:36:47;;;;;;;;;;;19.60;38.70;;;;;;462900;257;1136;-44
2021/04/04 09:38:48;;;;;;;;;;;19.60;38.60;;;;;;463222;257;1152;-44
2021/04/04 09:40:49;;;;;;;;;;;19.70;38.50;;;;;;463313;257;1078;-45
2021/04/04 09:42:50;;;;;;;;;;;19.70;38.40;;;;;;463194;257;1291;-45
2021/04/04 09:44:52;;;;;;;;;;;19.80;38.30;;;;;;462976;257;1186;-44
2021/04/04 09:46:53;;;;;;;;;;;19.80;38.20;;;;;;462940;257;2203;-44
2021/04/04 09:48:54;;;;;;;;;;;19.80;38.10;;;;;;462897;257;1056;-44
2021/04/04 09:50:55;;;;;;;;;;;19.90;38.10;;;;;;462970;257;1083;-45
2021/04/04 09:52:57;;;;;;;;;;;19.90;38.00;;;;;;463009;257;1024;-45
2021/04/04 09:54:58;;;;;;;;;;;19.90;37.90;;;;;;462950;257;1058;-45
2021/04/04 09:56:59;;;;;;;;;;;19.90;37.90;;;;;;463003;257;1247;-44
2021/04/04 09:59:01;;;;;;;;;;;20.00;37.90;;;;;;462960;257;1095;-44
2021/04/04 10:01:02;;;;;;;;;;;20.00;37.80;;;;;;462837;257;1436;-45
2021/04/04 10:03:05;;;;;;;;;;;20.10;37.80;;;;;;462882;257;1114;-45
2021/04/04 10:05:04;;;;;;;;;;;20.10;37.70;;;;;;462818;258;1275;-44
2021/04/04 10:07:06;;;;;;;;;;;20.10;37.60;;;;;;462966;257;2163;-44
2021/04/04 10:09:11;;;;;;;;;;;20.10;37.60;;;;;;462944;257;1035;-45
2021/04/04 10:11:09;;;;;;;;;;;20.20;37.50;;;;;;462676;258;2197;-44
2021/04/04 10:13:10;;;;;;;;;;;20.20;37.40;;;;;;462886;257;986;-44
2021/04/04 10:15:11;;;;;;;;;;;20.20;37.40;;;;;;462956;257;1164;-45
2021/04/04 10:17:13;;;;;;;;;;;20.20;37.50;;;;;;462917;257;1068;-44
2021/04/04 10:19:15;;;;;;;;;;;20.20;37.40;;;;;;462923;257;988;-45
2021/04/04 10:21:16;;;;;;;;;;;20.30;37.40;;;;;;463002;257;1078;-44
2021/04/04 10:23:17;;;;;;;;;;;20.30;37.40;;;;;;462938;257;1085;-45
2021/04/04 10:25:19;;;;;;;;;;;20.30;37.30;;;;;;462966;257;1083;-45
2021/04/04 10:27:20;;;;;;;;;;;20.30;37.30;;;;;;462936;257;2211;-45
2021/04/04 10:29:24;;;;;;;;;;;20.30;37.30;;;;;;462919;257;1374;-45
2021/04/04 10:31:23;;;;;;;;;;;20.40;37.30;;;;;;462703;257;2321;-45
2021/04/04 10:33:25;;;;;;;;;;;20.40;37.20;;;;;;462911;257;1361;-44
2021/04/04 10:35:26;;;;;;;;;;;20.40;37.20;;;;;;462891;257;1221;-45
2021/04/04 10:37:28;;;;;;;;;;;20.40;37.20;;;;;;462778;257;1221;-44
2021/04/04 10:39:28;;;;;;;;;;;20.40;37.20;;;;;;462814;257;2028;-45
2021/04/04 10:41:30;;;;;;;;;;;20.40;37.10;;;;;;462988;257;1210;-45
2021/04/04 10:43:31;;;;;;;;;;;20.50;37.10;;;;;;462910;257;1222;-45
2021/04/04 10:45:32;;;;;;;;;;;20.40;37.10;;;;;;463030;257;1349;-45
2021/04/04 10:47:34;;;;;;;;;;;20.50;37.10;;;;;;462823;257;2215;-44
2021/04/04 10:49:35;;;;;;;;;;;20.50;37.10;;;;;;462886;257;1127;-45
2021/04/04 10:51:36;;;;;;;;;;;20.50;37.10;;;;;;462799;257;1256;-44
2021/04/04 10:53:37;;;;;;;;;;;20.50;37.00;;;;;;462865;257;1046;-45
2021/04/04 10:55:39;;;;;;;;;;;20.50;37.00;;;;;;463057;257;1336;-44
2021/04/04 10:57:40;;;;;;;;;;;20.60;36.90;;;;;;462842;257;1053;-45
2021/04/04 10:59:41;;;;;;;;;;;20.60;36.90;;;;;;462974;257;1086;-44
2021/04/04 11:01:43;;;;;;;;;;;20.70;36.90;;;;;;462895;257;1555;-44
2021/04/04 11:03:44;;;;;;;;;;;20.60;36.80;;;;;;463110;257;1125;-45
2021/04/04 11:05:45;;;;;;;;;;;20.70;36.90;;;;;;462946;257;1234;-44
2021/04/04 11:07:46;;;;;;;;;;;20.60;36.80;;;;;;463152;257;2144;-45
2021/04/04 11:09:48;;;;;;;;;;;20.60;36.80;;;;;;462919;257;1065;-44
2021/04/04 11:11:49;;;;;;;;;;;20.60;36.90;;;;;;463011;257;1212;-45
2021/04/04 11:13:52;;;;;;;;;;;20.60;36.80;;;;;;462954;257;979;-45
2021/04/04 11:15:51;;;;;;;;;;;20.70;36.80;;;;;;462780;258;2085;-45
2021/04/04 11:17:53;;;;;;;;;;;20.70;36.80;;;;;;462922;257;1093;-45
2021/04/04 11:19:54;;;;;;;;;;;20.70;36.80;;;;;;462862;257;1062;-45
2021/04/04 11:21:55;;;;;;;;;;;20.70;36.80;;;;;;462822;257;1143;-44
2021/04/04 11:23:57;;;;;;;;;;;20.70;36.70;;;;;;462890;257;1063;-45
2021/04/04 11:25:58;;;;;;;;;;;20.80;36.80;;;;;;462940;257;1093;-45
2021/04/04 11:27:59;;;;;;;;;;;20.70;36.70;;;;;;462829;257;2152;-45
2021/04/04 11:30:00;;;;;;;;;;;20.80;36.70;;;;;;462985;257;1079;-45
2021/04/04 11:32:02;;;;;;;;;;;20.80;36.70;;;;;;462870;257;1189;-45
2021/04/04 11:34:03;;;;;;;;;;;20.80;36.70;;;;;;462942;257;1072;-44
2021/04/04 11:36:06;;;;;;;;;;;20.80;36.60;;;;;;462993;257;1162;-45
2021/04/04 11:38:06;;;;;;;;;;;20.80;36.60;;;;;;463035;257;1502;-45
2021/04/04 11:40:07;;;;;;;;;;;20.80;36.60;;;;;;462918;257;1086;-45
2021/04/04 11:42:08;;;;;;;;;;;20.80;36.60;;;;;;462892;257;1097;-45
2021/04/04 11:44:10;;;;;;;;;;;20.80;36.70;;;;;;462862;257;1150;-44
2021/04/04 11:46:11;;;;;;;;;;;20.80;36.60;;;;;;462880;257;1120;-45
2021/04/04 11:48:12;;;;;;;;;;;20.90;36.60;;;;;;462956;257;2206;-44
2021/04/04 11:50:14;;;;;;;;;;;20.90;36.60;;;;;;463094;257;1086;-45
2021/04/04 11:52:15;;;;;;;;;;;20.90;36.60;;;;;;462888;257;1293;-45
2021/04/04 11:54:16;;;;;;;;;;;20.90;36.50;;;;;;462912;257;1319;-44
2021/04/04 11:56:17;;;;;;;;;;;20.90;36.60;;;;;;462960;257;1092;-45